Map

Track Data

SID SEASON NUMBER BASIN SUBBASIN NAME ISO_TIME NATURE LAT LON WMO_WIND WMO_PRES WMO_AGENCY TRACK_TYPE DIST2LAND LANDFALL IFLAG USA_AGENCY USA_ATCF_ID USA_LAT USA_LON USA_RECORD USA_STATUS USA_WIND USA_PRES USA_SSHS USA_R34_NE USA_R34_SE USA_R34_SW USA_R34_NW USA_R50_NE USA_R50_SE USA_R50_SW USA_R50_NW USA_R64_NE USA_R64_SE USA_R64_SW USA_R64_NW USA_POCI USA_ROCI USA_RMW USA_EYE TOKYO_LAT TOKYO_LON TOKYO_GRADE TOKYO_WIND TOKYO_PRES TOKYO_R50_DIR TOKYO_R50_LONG TOKYO_R50_SHORT TOKYO_R30_DIR TOKYO_R30_LONG TOKYO_R30_SHORT TOKYO_LAND CMA_LAT CMA_LON CMA_CAT CMA_WIND CMA_PRES HKO_LAT HKO_LON HKO_CAT HKO_WIND HKO_PRES NEWDELHI_LAT NEWDELHI_LON NEWDELHI_GRADE NEWDELHI_WIND NEWDELHI_PRES NEWDELHI_CI NEWDELHI_DP NEWDELHI_POCI REUNION_LAT REUNION_LON REUNION_TYPE REUNION_WIND REUNION_PRES REUNION_TNUM REUNION_CI REUNION_RMW REUNION_R34_NE REUNION_R34_SE REUNION_R34_SW REUNION_R34_NW REUNION_R50_NE REUNION_R50_SE REUNION_R50_SW REUNION_R50_NW REUNION_R64_NE REUNION_R64_SE REUNION_R64_SW REUNION_R64_NW BOM_LAT BOM_LON BOM_TYPE BOM_WIND BOM_PRES BOM_TNUM BOM_CI BOM_RMW BOM_R34_NE BOM_R34_SE BOM_R34_SW BOM_R34_NW BOM_R50_NE BOM_R50_SE BOM_R50_SW BOM_R50_NW BOM_R64_NE BOM_R64_SE BOM_R64_SW BOM_R64_NW BOM_ROCI BOM_POCI BOM_EYE BOM_POS_METHOD BOM_PRES_METHOD NADI_LAT NADI_LON NADI_CAT NADI_WIND NADI_PRES WELLINGTON_LAT WELLINGTON_LON WELLINGTON_WIND WELLINGTON_PRES DS824_LAT DS824_LON DS824_STAGE DS824_WIND DS824_PRES TD9636_LAT TD9636_LON TD9636_STAGE TD9636_WIND TD9636_PRES TD9635_LAT TD9635_LON TD9635_WIND TD9635_PRES TD9635_ROCI NEUMANN_LAT NEUMANN_LON NEUMANN_CLASS NEUMANN_WIND NEUMANN_PRES MLC_LAT MLC_LON MLC_CLASS MLC_WIND MLC_PRES USA_GUST BOM_GUST BOM_GUST_PER REUNION_GUST REUNION_GUST_PER USA_SEAHGT USA_SEARAD_NE USA_SEARAD_SE USA_SEARAD_SW USA_SEARAD_NW STORM_SPEED STORM_DIR
1925230N29285 1925 36 NA NA NOT_NAMED 1925-08-18 00:00:00 TS 29.0000 -75.5000 25 hurdat_atl main 489 489 O_____________ hurdat_atl AL011925 29.0000 -75.5000 TD 25 -1 8 50
1925230N29285 1925 36 NA NA NOT_NAMED 1925-08-18 03:00:00 TS 29.2501 -75.1603 main 522 522 P_____________ AL011925 29.2501 -75.1603 TD 25 -1 8 51
1925230N29285 1925 36 NA NA NOT_NAMED 1925-08-18 06:00:00 TS 29.5000 -74.8000 25 hurdat_atl main 564 564 O_____________ hurdat_atl AL011925 29.5000 -74.8000 TD 25 -1 8 53
1925230N29285 1925 36 NA NA NOT_NAMED 1925-08-18 09:00:00 TS 29.7499 -74.4074 main 578 569 P_____________ AL011925 29.7499 -74.4074 TD 27 -1 9 54
1925230N29285 1925 36 NA NA NOT_NAMED 1925-08-18 12:00:00 TS 30.0000 -74.0000 30 hurdat_atl main 574 561 O_____________ hurdat_atl AL011925 30.0000 -74.0000 TD 30 -1 9 54
1925230N29285 1925 36 NA NA NOT_NAMED 1925-08-18 15:00:00 TS 30.2498 -73.6072 main 570 555 P_____________ AL011925 30.2498 -73.6072 TD 32 -1 9 54
1925230N29285 1925 36 NA NA NOT_NAMED 1925-08-18 18:00:00 TS 30.5000 -73.2000 35 hurdat_atl main 560 556 O_____________ hurdat_atl AL011925 30.5000 -73.2000 TS 35 0 9 56
1925230N29285 1925 36 NA NA NOT_NAMED 1925-08-18 21:00:00 TS 30.7499 -72.7573 main 564 558 P_____________ AL011925 30.7499 -72.7573 TS 37 0 9 57
1925230N29285 1925 36 NA NA NOT_NAMED 1925-08-19 00:00:00 TS 31.0000 -72.3000 40 hurdat_atl main 568 567 O_____________ hurdat_atl AL011925 31.0000 -72.3000 TS 40 0 9 57
1925230N29285 1925 36 NA NA NOT_NAMED 1925-08-19 03:00:00 TS 31.2498 -71.8498 main 586 578 P_____________ AL011925 31.2498 -71.8498 TS 42 0 9 57
1925230N29285 1925 36 NA NA NOT_NAMED 1925-08-19 06:00:00 TS 31.5000 -71.4000 45 hurdat_atl main 592 592 O_____________ hurdat_atl AL011925 31.5000 -71.4000 TS 45 0 9 57
1925230N29285 1925 36 NA NA NOT_NAMED 1925-08-19 09:00:00 TS 31.7271 -70.9716 main 607 607 P_____________ AL011925 31.7271 -70.9716 TS 47 0 9 57
1925230N29285 1925 36 NA NA NOT_NAMED 1925-08-19 12:00:00 TS 32.0000 -70.5000 50 hurdat_atl main 625 624 O_____________ hurdat_atl AL011925 32.0000 -70.5000 TS 50 0 11 54
1925230N29285 1925 36 NA NA NOT_NAMED 1925-08-19 15:00:00 TS 32.3544 -69.9590 main 631 631 P_____________ AL011925 32.3544 -69.9590 TS 52 0 13 52
1925230N29285 1925 36 NA NA NOT_NAMED 1925-08-19 18:00:00 TS 32.8000 -69.3000 55 hurdat_atl main 659 659 O_____________ hurdat_atl AL011925 32.8000 -69.3000 TS 55 0 15 51
1925230N29285 1925 36 NA NA NOT_NAMED 1925-08-19 21:00:00 TS 33.3112 -68.5457 main 697 692 P_____________ AL011925 33.3112 -68.5457 TS 57 0 18 52
1925230N29285 1925 36 NA NA NOT_NAMED 1925-08-20 00:00:00 TS 33.9000 -67.6000 60 hurdat_atl main 749 749 O_____________ hurdat_atl AL011925 33.9000 -67.6000 TS 60 0 21 54
1925230N29285 1925 36 NA NA NOT_NAMED 1925-08-20 03:00:00 TS 34.5325 -66.4901 main 828 828 P_____________ AL011925 34.5325 -66.4901 TS 65 1 24 58
1925230N29285 1925 36 NA NA NOT_NAMED 1925-08-20 06:00:00 TS 35.2000 -65.1000 70 hurdat_atl main 839 838 O_____________ hurdat_atl AL011925 35.2000 -65.1000 HU 70 1 29 63
1925230N29285 1925 36 NA NA NOT_NAMED 1925-08-20 09:00:00 TS 35.8526 -63.3376 main 862 839 P_____________ AL011925 35.8526 -63.3376 HU 70 1 32 66
1925230N29285 1925 36 NA NA NOT_NAMED 1925-08-20 12:00:00 TS 36.5000 -61.5000 70 hurdat_atl main 842 835 O_____________ hurdat_atl AL011925 36.5000 -61.5000 HU 70 1 31 65
1925230N29285 1925 36 NA NA NOT_NAMED 1925-08-20 15:00:00 TS 37.1487 -59.8786 main 845 840 P_____________ AL011925 37.1487 -59.8786 HU 70 1 27 61
1925230N29285 1925 36 NA NA NOT_NAMED 1925-08-20 18:00:00 TS 37.8000 -58.5000 70 hurdat_atl main 846 812 O_____________ hurdat_atl AL011925 37.8000 -58.5000 HU 70 1 24 57
1925230N29285 1925 36 NA NA NOT_NAMED 1925-08-20 21:00:00 TS 38.4408 -57.3483 main 818 776 P_____________ AL011925 38.4408 -57.3483 HU 67 1 20 50
1925230N29285 1925 36 NA NA NOT_NAMED 1925-08-21 00:00:00 TS 39.1000 -56.5000 65 hurdat_atl main 776 730 O_____________ hurdat_atl AL011925 39.1000 -56.5000 HU 65 1 17 39
1925230N29285 1925 36 NA NA NOT_NAMED 1925-08-21 03:00:00 TS 39.7904 -55.9263 main 735 691 P_____________ AL011925 39.7904 -55.9263 HU 62 0 16 29
1925230N29285 1925 36 NA NA NOT_NAMED 1925-08-21 06:00:00 ET 40.5000 -55.5000 60 hurdat_atl main 691 O_____________ hurdat_atl AL011925 40.5000 -55.5000 EX 60 -4 16 25

About IBTrACS Database

This database is a web-friendly format of International Best Track Archive for Climate Stewardship (IBTrACS), a global best track data archive curated by NOAA dating back to 1842.

Updated: 2021-10-21